Tupelo Regional Airport
KTUP : rendu visible

Aérodrome :











RETROUVEZ-NOUS SUR...

 
LOGIN :

S'inscrire | Disclaimer

   EN    FR    IT 

 









Légende :    VFR   VFR Marginal   IFR   IFR Intensif   IFR Très Intensif
Visi : 
Plafond : 
>= 8 km
>= 3000ft
5 à 8 km
1000 à 3000 ft
1500m à 5 km
500 à 1000 ft
800 à 1500m
200 à 500 ft
< 800m
< 200 ft
Symboles :   Orages  Brouillard  Fortes neiges  Fortes précipitations  Vent > 20 kt






- Altitude de l'aérodrome : 346 ft
- Code IATA : TUP


KTUP - Tupelo Regional

DERNIER METAR :
  • 210253Z 01013KT 10SM CLR M03/M09 A3053 RMK AO2 SLP343 T10281089 50005 $

METARs EXPIRÉS :
  • 210153Z 02013KT 10SM CLR M03/M09 A3054 RMK AO2 SLP345 T10281089 $
  • 210053Z 02010KT 10SM CLR M02/M08 A3053 RMK AO2 SLP342 T10221083 $

TAF KTUP
Valide du 21 à 00h jusqu'au 22 à 00h UTC


202325Z 2100/2124 02011KT P6SM FEW250
FM210400 01005KT P6SM BKN200
FM210600 01006KT P6SM BKN060
TEMPO 2106/2109 4SM -SN OVC025
FM211000 01006KT P6SM -SN SCT150
FM211200 01006KT P6SM FEW250



MET'MAP, la Météo Aéronautique d'un coup d'oeil ! - Copyright ORBIFLY Décembre 2007 - Disclaimer

ORBIFLY MET'MAP TEAM :

Programmation & Développement : Alexandra Zaïnal
Sur une idée originale de : Baudouin d'Aumeries
Assistance à la programmation : Marc-Olivier Méhu
Soutien technique & logistique : Manuel Goepfert

Contact : metmap@orbifly.com




SOURCES & CREDITS :

   NOAA       Earth
Advisory